createdAt,value
2019-03-26T00:01:49.223Z,5.80
2019-03-26T00:06:44.746Z,5.30
2019-03-26T00:11:41.258Z,5.87
2019-03-26T00:16:36.549Z,5.43
2019-03-26T00:21:32.793Z,5.70
2019-03-26T00:26:28.263Z,5.53
2019-03-26T00:31:23.526Z,4.90
2019-03-26T00:36:18.773Z,5.13
2019-03-26T00:41:14.976Z,5.10
2019-03-26T00:46:13.499Z,5.23
2019-03-26T00:51:08.738Z,5.27
2019-03-26T00:56:03.972Z,5.40
2019-03-26T01:01:00.771Z,5.40
2019-03-26T01:05:58.466Z,5.23
2019-03-26T01:10:53.736Z,5.30
2019-03-26T01:15:59.226Z,5.63
2019-03-26T01:20:54.989Z,5.20
2019-03-26T01:25:56.089Z,5.50
2019-03-26T01:30:51.386Z,5.43
2019-03-26T01:35:46.914Z,5.87
2019-03-26T01:40:42.182Z,6.20
2019-03-26T01:45:37.515Z,5.90
2019-03-26T01:50:32.795Z,5.87
2019-03-26T01:55:28.499Z,6.23
2019-03-26T02:00:23.778Z,5.20
2019-03-26T02:05:19.275Z,5.40
2019-03-26T02:10:14.724Z,5.63
2019-03-26T02:15:13.183Z,5.70
2019-03-26T02:20:08.914Z,6.03
2019-03-26T02:25:04.327Z,5.10
2019-03-26T02:29:59.686Z,5.37
2019-03-26T02:34:55.303Z,6.00
2019-03-26T02:39:50.726Z,5.20
2019-03-26T02:44:46.275Z,5.73
2019-03-26T02:49:41.546Z,5.33
2019-03-26T02:54:36.802Z,5.70
2019-03-26T02:59:32.125Z,5.90
2019-03-26T03:04:27.383Z,6.10
2019-03-26T03:09:22.645Z,6.20
2019-03-26T03:14:18.019Z,5.63
2019-03-26T03:19:15.862Z,5.67
2019-03-26T03:24:10.300Z,5.83
2019-03-26T03:29:05.558Z,5.67
2019-03-26T03:34:00.878Z,5.83
2019-03-26T03:38:56.418Z,5.90
2019-03-26T03:43:51.827Z,6.30
2019-03-26T03:48:48.306Z,6.10
2019-03-26T03:53:43.656Z,6.17
2019-03-26T03:58:40.852Z,5.60
2019-03-26T04:03:36.434Z,5.80
2019-03-26T04:08:31.702Z,5.50
2019-03-26T04:13:27.052Z,6.07
2019-03-26T04:18:22.364Z,6.47
2019-03-26T04:23:17.647Z,6.20
2019-03-26T04:28:12.906Z,5.27
2019-03-26T04:33:08.167Z,6.00
2019-03-26T04:38:03.456Z,5.90
2019-03-26T04:42:58.878Z,6.67
2019-03-26T04:47:54.160Z,6.07
2019-03-26T04:52:50.217Z,5.73
2019-03-26T04:57:45.551Z,6.37
2019-03-26T05:02:40.808Z,6.40
2019-03-26T05:07:36.088Z,6.03
2019-03-26T05:12:31.362Z,6.20
2019-03-26T05:17:29.627Z,6.50
2019-03-26T05:22:25.202Z,7.33
2019-03-26T05:27:20.763Z,6.37
2019-03-26T05:32:16.019Z,6.47
2019-03-26T05:37:11.301Z,6.43
2019-03-26T05:42:06.875Z,6.97
2019-03-26T05:47:02.141Z,7.17
2019-03-26T05:51:57.399Z,7.07
2019-03-26T05:56:52.802Z,7.07
2019-03-26T06:01:48.092Z,7.80
2019-03-26T06:06:43.358Z,6.50
2019-03-26T06:11:38.648Z,6.83
2019-03-26T06:16:38.561Z,6.30
2019-03-26T06:21:31.172Z,5.80
2019-03-26T06:26:26.433Z,6.53
2019-03-26T06:31:24.841Z,6.50
2019-03-26T06:36:20.103Z,6.10
2019-03-26T06:41:15.372Z,7.03
2019-03-26T06:46:10.644Z,6.47
2019-03-26T06:51:05.901Z,6.80
2019-03-26T06:56:01.186Z,6.53
2019-03-26T07:00:56.442Z,5.60
2019-03-26T07:05:52.235Z,5.30
2019-03-26T07:10:47.954Z,5.77
2019-03-26T07:15:52.135Z,5.23
2019-03-26T07:20:47.391Z,5.83
2019-03-26T07:25:42.665Z,5.53
2019-03-26T07:30:39.568Z,5.33
2019-03-26T07:35:34.822Z,4.73
2019-03-26T07:40:30.085Z,4.40
2019-03-26T07:45:25.453Z,4.43
2019-03-26T07:50:20.704Z,3.97
2019-03-26T07:55:16.180Z,4.80
2019-03-26T08:00:12.353Z,4.67
2019-03-26T08:05:08.354Z,4.37
2019-03-26T08:10:03.684Z,3.80
2019-03-26T08:14:58.936Z,3.67
2019-03-26T08:19:54.208Z,4.20
2019-03-26T08:24:49.469Z,3.70
2019-03-26T08:29:44.979Z,4.27
2019-03-26T08:34:40.250Z,3.50
2019-03-26T08:39:35.636Z,2.70
2019-03-26T08:44:30.947Z,2.57
2019-03-26T08:49:30.807Z,2.50
2019-03-26T08:54:23.749Z,2.37
2019-03-26T08:59:24.850Z,2.13
2019-03-26T09:04:20.435Z,3.10
2019-03-26T09:09:15.705Z,2.73
2019-03-26T09:14:10.993Z,3.17
2019-03-26T09:19:06.280Z,3.60
2019-03-26T09:24:04.927Z,3.07
2019-03-26T09:29:00.168Z,2.70
2019-03-26T09:33:55.465Z,2.60
2019-03-26T09:38:50.842Z,2.63
2019-03-26T09:43:46.101Z,2.47
2019-03-26T09:48:41.750Z,2.00
2019-03-26T09:53:37.033Z,2.30
2019-03-26T09:58:32.409Z,2.10
2019-03-26T10:03:27.664Z,2.07
2019-03-26T10:08:22.912Z,2.30
2019-03-26T10:13:18.168Z,2.90
2019-03-26T10:18:13.547Z,1.73
2019-03-26T10:23:08.917Z,2.37
2019-03-26T10:28:04.191Z,2.53
2019-03-26T10:32:59.510Z,2.90
2019-03-26T10:37:54.775Z,2.50
2019-03-26T10:42:50.497Z,2.90
2019-03-26T10:47:45.759Z,2.80
2019-03-26T10:52:41.022Z,2.80
2019-03-26T10:57:36.351Z,3.40
2019-03-26T11:02:33.159Z,3.37
2019-03-26T11:07:28.839Z,3.73
2019-03-26T11:12:24.264Z,3.40
2019-03-26T11:17:19.687Z,3.57
2019-03-26T11:22:15.961Z,3.73
2019-03-26T11:27:11.216Z,3.40
2019-03-26T11:32:06.517Z,3.80
2019-03-26T11:37:01.778Z,3.60
2019-03-26T11:41:59.031Z,3.73
2019-03-26T11:46:54.619Z,3.10
2019-03-26T11:51:49.881Z,3.37
2019-03-26T11:56:45.202Z,3.60
2019-03-26T12:01:40.501Z,3.60
2019-03-26T12:06:35.769Z,3.70
2019-03-26T12:11:31.061Z,3.50
2019-03-26T12:16:32.320Z,2.63
2019-03-26T12:21:29.743Z,3.70
2019-03-26T12:26:25.192Z,2.90
2019-03-26T12:31:35.959Z,2.33
2019-03-26T12:36:39.758Z,3.20
2019-03-26T12:41:46.364Z,3.90
2019-03-26T12:46:41.641Z,2.70
2019-03-26T12:51:39.325Z,2.63
2019-03-26T12:56:34.497Z,2.70
2019-03-26T13:01:29.845Z,3.10
2019-03-26T13:06:25.105Z,3.23
2019-03-26T13:11:20.349Z,2.80
2019-03-26T13:16:15.620Z,3.27
2019-03-26T13:21:10.881Z,2.30
2019-03-26T13:26:06.721Z,2.77
2019-03-26T13:31:02.258Z,2.67
2019-03-26T13:35:57.511Z,2.80
2019-03-26T13:40:52.925Z,2.60
2019-03-26T13:45:48.114Z,2.70
2019-03-26T13:50:43.378Z,2.40
2019-03-26T13:55:44.582Z,2.70
2019-03-26T14:00:40.678Z,2.67
2019-03-26T14:05:36.176Z,2.40
2019-03-26T14:10:40.715Z,2.47
2019-03-26T14:15:28.893Z,2.50
2019-03-26T14:20:24.235Z,2.60
2019-03-26T14:25:19.619Z,2.50
2019-03-26T14:30:15.362Z,2.57
2019-03-26T14:35:10.631Z,2.60
2019-03-26T14:40:06.409Z,2.37
2019-03-26T14:45:06.156Z,2.57
2019-03-26T14:50:01.429Z,2.40
2019-03-26T14:54:56.695Z,2.50
2019-03-26T14:59:52.321Z,2.70
2019-03-26T15:04:48.231Z,2.97
2019-03-26T15:09:43.485Z,2.20
2019-03-26T15:14:38.734Z,2.87
2019-03-26T15:19:33.988Z,2.70
2019-03-26T15:24:29.270Z,2.80
2019-03-26T15:29:24.773Z,2.60
2019-03-26T15:34:20.115Z,5.47
2019-03-26T15:39:15.426Z,3.63
2019-03-26T15:44:11.068Z,4.73
2019-03-26T15:49:06.417Z,3.30
2019-03-26T15:54:02.088Z,2.10
2019-03-26T15:58:57.443Z,1.70
2019-03-26T16:03:52.958Z,2.30
2019-03-26T16:08:48.224Z,2.70
2019-03-26T16:13:43.474Z,2.10
2019-03-26T16:18:38.728Z,1.80
2019-03-26T16:23:34.358Z,2.50
2019-03-26T16:28:29.622Z,1.60
2019-03-26T16:33:24.923Z,2.40
2019-03-26T16:38:20.785Z,2.20
2019-03-26T16:43:16.091Z,2.40
2019-03-26T16:48:11.425Z,2.30
2019-03-26T16:53:08.659Z,1.63
2019-03-26T16:58:11.714Z,2.33
2019-03-26T17:03:07.987Z,2.13
2019-03-26T17:08:03.501Z,2.37
2019-03-26T17:12:58.943Z,3.30
2019-03-26T17:17:54.214Z,12.33
2019-03-26T17:22:49.721Z,2.23
2019-03-26T17:27:44.972Z,2.27
2019-03-26T17:32:40.231Z,2.60
2019-03-26T17:37:35.474Z,2.60
2019-03-26T17:42:32.063Z,2.57
2019-03-26T17:47:27.328Z,3.10
2019-03-26T17:52:22.824Z,2.80
2019-03-26T17:57:18.739Z,2.93
2019-03-26T18:02:14.326Z,3.20
2019-03-26T18:07:09.851Z,2.90
2019-03-26T18:12:05.130Z,3.10
2019-03-26T18:17:00.414Z,3.43
2019-03-26T18:21:55.677Z,3.77
2019-03-26T18:26:50.933Z,3.80
2019-03-26T18:31:46.212Z,4.77
2019-03-26T18:36:41.580Z,3.10
2019-03-26T18:41:37.337Z,3.80
2019-03-26T18:46:32.652Z,4.17
2019-03-26T18:51:27.984Z,3.80
2019-03-26T18:56:23.344Z,4.57
2019-03-26T19:01:18.656Z,4.67
2019-03-26T19:06:14.054Z,4.93
2019-03-26T19:11:09.312Z,5.40
2019-03-26T19:16:10.458Z,5.33
2019-03-26T19:21:05.841Z,5.93
2019-03-26T19:26:01.242Z,5.53
2019-03-26T19:30:57.102Z,5.33
2019-03-26T19:35:53.110Z,5.43
2019-03-26T19:40:48.839Z,6.00
2019-03-26T19:45:44.265Z,7.17
2019-03-26T19:50:39.692Z,6.87
2019-03-26T19:55:35.554Z,6.47
2019-03-26T20:00:30.972Z,7.10
2019-03-26T20:05:26.481Z,6.43
2019-03-26T20:10:22.031Z,6.30
2019-03-26T20:15:18.599Z,6.47
2019-03-26T20:20:15.741Z,6.83
2019-03-26T20:25:11.661Z,6.93
2019-03-26T20:30:07.850Z,6.87
2019-03-26T20:35:03.314Z,6.93
2019-03-26T20:39:58.732Z,6.87
2019-03-26T20:44:54.070Z,7.30
2019-03-26T20:49:49.654Z,6.00
2019-03-26T20:54:45.151Z,6.73
2019-03-26T20:59:40.720Z,7.20
2019-03-26T21:04:36.108Z,6.00
2019-03-26T21:09:31.608Z,5.87
2019-03-26T21:14:27.053Z,6.47
2019-03-26T21:19:22.799Z,5.83
2019-03-26T21:24:18.309Z,6.20
2019-03-26T21:29:14.122Z,5.70
2019-03-26T21:34:09.583Z,6.40
2019-03-26T21:39:06.650Z,6.50
2019-03-26T21:44:04.513Z,6.23
2019-03-26T21:49:01.136Z,6.23
2019-03-26T21:53:58.131Z,6.07
2019-03-26T21:58:53.449Z,7.20
2019-03-26T22:03:48.716Z,8.13
2019-03-26T22:08:43.990Z,8.77
2019-03-26T22:13:39.257Z,8.83
2019-03-26T22:18:34.506Z,9.23
2019-03-26T22:23:29.768Z,8.77
2019-03-26T22:28:25.042Z,9.67
2019-03-26T22:33:20.299Z,9.87
2019-03-26T22:38:15.603Z,10.10
2019-03-26T22:43:11.224Z,9.87
2019-03-26T22:48:06.591Z,10.67
2019-03-26T22:53:01.866Z,10.00
2019-03-26T22:57:57.412Z,10.10
2019-03-26T23:02:52.684Z,9.30
2019-03-26T23:07:48.144Z,9.00
2019-03-26T23:12:43.416Z,9.17
2019-03-26T23:17:38.672Z,8.70
2019-03-26T23:22:33.942Z,9.17
2019-03-26T23:27:29.267Z,10.23
2019-03-26T23:32:24.526Z,9.80
2019-03-26T23:37:19.783Z,9.73
2019-03-26T23:42:16.158Z,10.97
2019-03-26T23:47:11.509Z,11.07
2019-03-26T23:52:06.789Z,9.83
2019-03-26T23:57:02.041Z,8.10
